Weather at White Waltham Airfield

Public forecast

Using degrees Celsius for public forecast. Weather courtesy of forecast.io.

Closest aviation weather report (METAR) to White Waltham Airfield

Closest report is London Heathrow Airport, 11.8 nm (21.9 km) E. Retrieved 2021/06/12 10:20 UTC (18 minutes ago):

EGLL 121020Z AUTO 34005KT 280V050 9999 BKN034 20/11 Q1023

Closest aviation forecast (TAF) to White Waltham Airfield

Closest forecast is London Heathrow Airport, 11.8 nm (21.9 km) E. Retrieved 2021/06/12 06:00 UTC (5 hours ago):

TAF EGLL 120500Z 1206/1312 29006KT 9999 SCT030